Time;durP1;ratioP1;P1;durP2;ratioP2;P2;SDS_P1;SDS_P2;PMS_P1;PMS_P2;Temp;Humidity;BMP_temperature;BMP_pressure;BME280_temperature;BME280_humidity;BME280_pressure;Samples;Min_cycle;Max_cycle;Signal;HPM_P1;HPM_P2
2021/12/27 00:00:10;;;;;;;3.63;1.95;;;;;;;-14.36;86.71;99949.19;5073306;28;20074;-84
2021/12/27 00:02:37;;;;;;;3.03;2.00;;;;;;;-14.36;87.20;99951.81;5055845;28;20040;-85
2021/12/27 00:05:03;;;;;;;3.40;1.90;;;;;;;-14.35;86.96;99948.22;5067628;28;20576;-85
2021/12/27 00:07:29;;;;;;;4.55;1.85;;;;;;;-14.32;87.02;99961.09;5071358;28;20494;-85
2021/12/27 00:09:55;;;;;;;4.32;2.60;;;;;;;-14.30;87.44;99953.06;5071426;28;20048;-85
2021/12/27 00:12:20;;;;;;;3.28;1.83;;;;;;;-14.27;87.16;99951.94;5073238;28;20166;-86
2021/12/27 00:14:46;;;;;;;4.40;2.00;;;;;;;-14.25;87.32;99952.63;5072238;28;20040;-85
2021/12/27 00:17:12;;;;;;;4.50;2.60;;;;;;;-14.22;86.76;99965.56;5071099;28;20056;-84
2021/12/27 00:19:37;;;;;;;3.10;1.95;;;;;;;-14.21;86.98;99962.78;5071110;28;20040;-86
2021/12/27 00:22:03;;;;;;;5.30;2.53;;;;;;;-14.19;87.46;99973.19;5053539;28;20039;-84
2021/12/27 00:24:29;;;;;;;4.32;2.25;;;;;;;-14.16;87.14;99979.00;5071274;28;20589;-85
2021/12/27 00:26:55;;;;;;;4.15;1.77;;;;;;;-14.14;87.16;99976.22;5053100;28;20094;-85
2021/12/27 00:29:21;;;;;;;3.00;1.77;;;;;;;-14.12;87.23;99984.81;5053128;28;20127;-86
2021/12/27 00:31:47;;;;;;;4.07;2.80;;;;;;;-14.10;87.55;99985.50;5037280;28;20482;-87
2021/12/27 00:34:13;;;;;;;2.60;1.80;;;;;;;-14.08;87.65;99980.94;5065631;28;20039;-85
2021/12/27 00:36:38;;;;;;;4.45;1.83;;;;;;;-14.07;87.60;99985.22;5070962;28;20035;-85
2021/12/27 00:39:05;;;;;;;4.82;2.05;;;;;;;-14.06;87.56;99995.63;5072512;28;20043;-85
2021/12/27 00:41:39;;;;;;;5.55;2.25;;;;;;;-14.04;87.23;99995.50;5070652;28;20396;-86
2021/12/27 00:44:05;;;;;;;2.80;1.80;;;;;;;-14.03;87.92;99995.38;5070760;28;20035;-85
2021/12/27 00:46:30;;;;;;;3.70;2.00;;;;;;;-14.02;87.42;99994.41;5052944;28;20032;-85
2021/12/27 00:48:56;;;;;;;3.80;2.10;;;;;;;-13.98;88.02;100004.66;5070598;28;20094;-85
2021/12/27 00:51:21;;;;;;;2.75;2.25;;;;;;;-13.99;87.10;100001.19;5073097;28;20083;-86
2021/12/27 00:53:47;;;;;;;4.45;2.20;;;;;;;-13.97;87.47;100006.31;5070574;28;20040;-85
2021/12/27 00:56:12;;;;;;;2.28;1.60;;;;;;;-13.98;88.14;100008.13;5052763;28;20024;-86
2021/12/27 00:58:38;;;;;;;2.13;1.92;;;;;;;-13.96;87.63;100014.09;5070649;28;20036;-86
2021/12/27 01:01:04;;;;;;;4.38;2.28;;;;;;;-13.97;87.41;100008.97;5071001;28;20032;-86
2021/12/27 01:03:29;;;;;;;3.13;2.17;;;;;;;-13.95;87.16;100023.66;5052469;28;20036;-85
2021/12/27 01:05:55;;;;;;;5.15;2.30;;;;;;;-13.94;87.81;100019.22;5052760;28;20081;-84
2021/12/27 01:08:21;;;;;;;2.58;1.38;;;;;;;-13.93;87.50;100011.16;5072420;28;20041;-84
2021/12/27 01:13:44;;;;;;;6.38;2.28;;;;;;;-13.89;87.42;100012.53;4995174;28;20046;-85
2021/12/27 01:16:12;;;;;;;3.40;2.30;;;;;;;-13.87;87.50;100010.63;5070486;28;20101;-86
2021/12/27 01:18:49;;;;;;;3.63;1.95;;;;;;;-13.83;87.38;100016.44;5079777;28;20040;-87
2021/12/27 01:21:17;;;;;;;4.35;2.50;;;;;;;-13.80;87.51;100017.00;5071194;28;20148;-86
2021/12/27 01:23:43;;;;;;;5.43;2.25;;;;;;;-13.74;88.05;100015.59;5059181;28;20082;-86
2021/12/27 01:26:09;;;;;;;3.33;1.92;;;;;;;-13.72;87.51;100021.53;5052982;28;20041;-85
2021/12/27 01:28:35;;;;;;;3.28;1.90;;;;;;;-13.67;88.00;100027.25;5085936;28;20032;-85
2021/12/27 01:31:01;;;;;;;3.00;1.85;;;;;;;-13.60;87.85;100027.50;5070796;28;20514;-87
2021/12/27 01:33:27;;;;;;;4.40;1.98;;;;;;;-13.55;87.64;100026.09;5070535;28;20064;-87
2021/12/27 01:35:54;;;;;;;3.22;1.80;;;;;;;-13.49;87.94;100024.72;5071932;28;20036;-86
2021/12/27 01:38:20;;;;;;;4.53;2.33;;;;;;;-13.45;87.65;100020.81;5086349;28;20507;-84
2021/12/27 01:40:48;;;;;;;4.60;2.42;;;;;;;-13.40;88.04;100021.22;5071796;28;20205;-85
2021/12/27 01:43:25;;;;;;;4.95;2.70;;;;;;;-13.35;88.50;100011.06;5071262;28;20074;-86
2021/12/27 01:45:52;;;;;;;5.70;2.10;;;;;;;-13.31;88.50;100023.00;5070813;28;20410;-84
2021/12/27 01:48:21;;;;;;;5.10;2.35;;;;;;;-13.24;88.05;100033.81;5072081;28;20610;-88
2021/12/27 01:50:49;;;;;;;4.28;2.25;;;;;;;-13.18;88.36;100030.63;5071423;28;20035;-86
2021/12/27 01:53:16;;;;;;;7.90;2.30;;;;;;;-13.13;88.39;100037.09;5072182;28;20028;-88
2021/12/27 01:55:42;;;;;;;5.25;2.58;;;;;;;-13.05;88.21;100030.22;5071230;28;20032;-89
2021/12/27 01:58:08;;;;;;;4.47;2.30;;;;;;;-13.01;88.36;100023.72;5061730;28;20101;-89
2021/12/27 02:00:39;;;;;;;4.13;1.98;;;;;;;-12.96;88.48;100024.09;5077653;28;20047;-87
2021/12/27 02:03:04;;;;;;;3.17;2.13;;;;;;;-12.90;88.94;100026.16;5086758;28;20075;-87
2021/12/27 02:05:31;;;;;;;3.28;1.90;;;;;;;-12.84;88.48;100030.84;5073883;28;20113;-87
2021/12/27 02:07:57;;;;;;;3.70;1.83;;;;;;;-12.80;88.55;100019.03;5040884;28;20545;-87
2021/12/27 02:10:22;;;;;;;4.90;2.67;;;;;;;-12.73;88.97;100013.97;5074393;28;20128;-87
2021/12/27 02:12:48;;;;;;;4.68;2.42;;;;;;;-12.65;89.03;100017.56;5064180;28;20036;-86
2021/12/27 02:15:13;;;;;;;3.60;1.98;;;;;;;-12.56;88.87;100015.81;5073105;28;20036;-87
2021/12/27 02:17:41;;;;;;;3.70;2.03;;;;;;;-12.51;89.07;100013.56;5074281;28;20075;-87
2021/12/27 02:20:09;;;;;;;3.28;1.77;;;;;;;-12.48;89.34;100014.13;5061891;28;20538;-88
2021/12/27 02:22:37;;;;;;;3.10;2.13;;;;;;;-12.40;89.38;100008.06;5094425;28;20033;-87
2021/12/27 02:25:07;;;;;;;4.20;2.10;;;;;;;-12.34;89.24;100009.28;5090224;28;20105;-87
2021/12/27 02:27:33;;;;;;;4.85;1.90;;;;;;;-12.29;88.74;100022.91;5072466;28;20041;-87
2021/12/27 02:29:59;;;;;;;3.38;2.30;;;;;;;-12.25;88.60;100025.06;5056616;28;20039;-86
2021/12/27 02:32:25;;;;;;;4.18;2.08;;;;;;;-12.20;89.53;100020.16;5077729;28;20041;-87
2021/12/27 02:34:50;;;;;;;3.13;2.03;;;;;;;-12.16;89.10;100028.63;5091461;28;20048;-87
2021/12/27 02:37:16;;;;;;;7.85;2.00;;;;;;;-12.10;89.79;100029.84;5059557;28;20094;-87
2021/12/27 02:39:45;;;;;;;6.38;2.55;;;;;;;-12.06;89.80;100028.56;5076823;28;20040;-87
2021/12/27 02:42:16;;;;;;;2.40;2.20;;;;;;;-12.01;89.37;100029.75;5074472;28;20040;-86
2021/12/27 02:44:42;;;;;;;3.65;2.47;;;;;;;-11.96;89.18;100027.50;5049632;28;20040;-87
2021/12/27 02:47:07;;;;;;;5.95;3.30;;;;;;;-11.90;89.87;100034.84;5077500;28;20556;-88
2021/12/27 02:49:33;;;;;;;4.55;3.05;;;;;;;-11.84;89.65;100032.56;5076936;28;20147;-87
2021/12/27 02:51:58;;;;;;;5.40;3.78;;;;;;;-11.78;89.67;100032.75;5046112;28;20036;-86
2021/12/27 02:54:24;;;;;;;4.85;2.83;;;;;;;-11.73;89.61;100037.59;5075753;28;20044;-88
2021/12/27 02:56:50;;;;;;;6.75;3.97;;;;;;;-11.67;89.06;100029.03;5075791;28;20044;-87
2021/12/27 02:59:15;;;;;;;4.35;2.83;;;;;;;-11.62;89.54;100034.72;5075771;28;20037;-85
2021/12/27 03:01:41;;;;;;;6.57;3.08;;;;;;;-11.58;89.38;100038.72;5075446;28;20040;-85
2021/12/27 03:04:06;;;;;;;4.13;3.13;;;;;;;-11.54;89.91;100045.34;5075214;28;20029;-85
2021/12/27 03:06:32;;;;;;;5.20;2.95;;;;;;;-11.51;90.00;100045.03;5056027;28;20036;-87
2021/12/27 03:08:58;;;;;;;4.15;3.03;;;;;;;-11.46;89.34;100045.41;5083264;28;20442;-86
2021/12/27 03:11:23;;;;;;;5.75;2.90;;;;;;;-11.42;89.60;100052.06;5071248;28;20032;-87
2021/12/27 03:13:53;;;;;;;4.82;2.85;;;;;;;-11.37;89.97;100044.47;5058748;28;20036;-87
2021/12/27 03:16:20;;;;;;;5.75;3.20;;;;;;;-11.33;89.99;100053.78;5089849;28;20040;-87
2021/12/27 03:18:53;;;;;;;4.85;2.58;;;;;;;-11.29;89.28;100049.00;5055986;28;20048;-87
2021/12/27 03:21:19;;;;;;;4.00;2.60;;;;;;;-11.26;89.18;100054.00;5081427;28;20044;-87
2021/12/27 03:23:46;;;;;;;4.00;2.92;;;;;;;-11.25;89.09;100055.66;5055181;28;20098;-88
2021/12/27 03:26:12;;;;;;;4.22;2.75;;;;;;;-11.23;89.73;100061.63;5055525;28;20090;-86
2021/12/27 03:28:38;;;;;;;5.68;2.97;;;;;;;-11.20;89.12;100056.00;5073790;28;20036;-87
2021/12/27 03:31:04;;;;;;;3.72;2.97;;;;;;;-11.18;89.38;100064.63;5055543;28;20460;-87
2021/12/27 03:33:30;;;;;;;4.55;2.60;;;;;;;-11.18;89.70;100058.50;5076159;28;20091;-86
2021/12/27 03:36:04;;;;;;;5.97;3.15;;;;;;;-11.14;89.07;100062.50;5054997;28;20511;-85
2021/12/27 03:38:33;;;;;;;4.95;2.92;;;;;;;-11.13;89.79;100074.75;5073751;28;20040;-86
2021/12/27 03:41:00;;;;;;;3.97;3.07;;;;;;;-11.11;89.59;100075.41;5024779;28;20069;-87
2021/12/27 03:43:26;;;;;;;4.47;3.00;;;;;;;-11.11;89.26;100070.13;5071810;28;20094;-88
2021/12/27 03:45:52;;;;;;;5.47;3.10;;;;;;;-11.11;89.19;100078.06;5061023;28;20423;-88
2021/12/27 03:48:18;;;;;;;4.63;3.42;;;;;;;-11.10;89.85;100077.94;5075403;28;20077;-85
2021/12/27 03:50:43;;;;;;;7.03;3.38;;;;;;;-11.09;89.06;100084.91;5072447;28;20040;-85
2021/12/27 03:53:09;;;;;;;4.90;2.60;;;;;;;-11.09;89.60;100090.19;5072572;28;20097;-83
2021/12/27 03:55:35;;;;;;;4.10;2.13;;;;;;;-11.08;89.37;100088.38;5072255;28;20414;-83
2021/12/27 03:58:23;;;;;;;5.03;2.80;;;;;;;-11.08;88.98;100083.09;5072376;28;20040;-82
2021/12/27 04:01:01;;;;;;;6.78;2.67;;;;;;;-11.08;88.88;100089.22;5066124;28;20391;-84
2021/12/27 04:03:29;;;;;;;5.30;2.42;;;;;;;-11.10;89.50;100090.34;5072116;28;20063;-84
2021/12/27 04:05:55;;;;;;;5.43;2.60;;;;;;;-11.12;89.10;100089.66;5070986;28;20482;-83
2021/12/27 04:08:22;;;;;;;4.05;2.67;;;;;;;-11.12;89.04;100097.59;5072638;28;20116;-84
2021/12/27 04:10:48;;;;;;;3.95;2.00;;;;;;;-11.14;89.12;100094.28;5072626;28;20657;-84
2021/12/27 04:13:18;;;;;;;5.07;2.50;;;;;;;-11.18;88.94;100108.81;5054536;28;20040;-86
2021/12/27 04:15:44;;;;;;;4.90;2.38;;;;;;;-11.19;88.86;100110.63;5072316;28;20044;-83
2021/12/27 04:18:11;;;;;;;2.97;2.05;;;;;;;-11.20;89.32;100124.03;5083894;28;20137;-83
2021/12/27 04:20:37;;;;;;;4.50;2.13;;;;;;;-11.21;89.08;100127.69;5075538;28;20051;-82
2021/12/27 04:23:03;;;;;;;3.60;2.05;;;;;;;-11.26;89.17;100134.28;5084856;28;20126;-83
2021/12/27 04:25:29;;;;;;;5.00;2.35;;;;;;;-11.28;89.38;100132.72;5080155;28;20039;-82
2021/12/27 04:27:54;;;;;;;4.80;2.65;;;;;;;-11.29;88.43;100147.78;5054781;28;20056;-88
2021/12/27 04:30:20;;;;;;;3.38;2.20;;;;;;;-11.32;89.53;100144.63;5072383;28;20048;-80
2021/12/27 04:32:47;;;;;;;5.65;3.45;;;;;;;-11.33;88.53;100153.56;5088510;28;20090;-82
2021/12/27 04:35:13;;;;;;;4.32;2.13;;;;;;;-11.33;89.03;100167.63;5076346;28;20051;-83
2021/12/27 04:37:39;;;;;;;5.05;2.70;;;;;;;-11.35;89.12;100172.25;5074490;28;20111;-84
2021/12/27 04:40:09;;;;;;;4.43;2.40;;;;;;;-11.36;88.45;100165.28;5078512;28;20194;-83
2021/12/27 04:42:35;;;;;;;4.57;3.10;;;;;;;-11.35;89.00;100176.72;5075212;28;20040;-83
2021/12/27 04:45:02;;;;;;;3.95;2.28;;;;;;;-11.36;89.15;100181.16;5070701;28;20043;-83
2021/12/27 04:47:28;;;;;;;2.90;2.00;;;;;;;-11.39;88.36;100176.19;5067520;28;20037;-83
2021/12/27 04:49:54;;;;;;;3.30;2.22;;;;;;;-11.39;88.80;100185.94;5071150;28;20589;-84
2021/12/27 04:52:20;;;;;;;3.03;2.30;;;;;;;-11.40;88.23;100193.06;5072560;28;20454;-84
2021/12/27 04:54:45;;;;;;;4.68;2.22;;;;;;;-11.41;88.57;100187.91;5087807;28;20050;-84
2021/12/27 04:57:11;;;;;;;4.13;2.03;;;;;;;-11.42;89.15;100196.84;5074621;28;20032;-84
2021/12/27 04:59:37;;;;;;;7.05;2.50;;;;;;;-11.46;88.41;100198.94;5053515;28;20102;-84
2021/12/27 05:02:03;;;;;;;4.70;2.22;;;;;;;-11.49;88.61;100191.31;5071693;28;20029;-84
2021/12/27 05:04:29;;;;;;;3.60;2.45;;;;;;;-11.50;88.40;100200.22;5071129;28;20040;-84
2021/12/27 05:06:55;;;;;;;4.65;2.28;;;;;;;-11.51;88.48;100203.03;5071217;28;20110;-84
2021/12/27 05:09:20;;;;;;;5.55;2.80;;;;;;;-11.52;89.10;100215.44;5071263;28;20498;-84
2021/12/27 05:11:46;;;;;;;3.08;1.70;;;;;;;-11.55;88.61;100218.38;5053717;28;20047;-83
2021/12/27 05:14:12;;;;;;;6.47;2.33;;;;;;;-11.55;88.48;100226.31;5071054;28;20032;-83
2021/12/27 05:16:37;;;;;;;3.85;2.30;;;;;;;-11.58;89.11;100223.97;5070942;28;20044;-83
2021/12/27 05:19:03;;;;;;;4.10;2.38;;;;;;;-11.61;88.31;100230.41;5071297;28;20075;-84
2021/12/27 05:21:29;;;;;;;4.30;2.55;;;;;;;-11.62;89.16;100238.50;5053227;28;20075;-83
2021/12/27 05:23:55;;;;;;;4.57;2.42;;;;;;;-11.65;88.33;100236.94;5070646;28;20127;-85
2021/12/27 05:26:20;;;;;;;4.60;2.72;;;;;;;-11.65;89.17;100241.41;5070693;28;20453;-83
2021/12/27 05:28:51;;;;;;;6.93;2.30;;;;;;;-11.68;88.36;100244.38;5071044;28;20047;-83
2021/12/27 05:31:17;;;;;;;4.93;2.25;;;;;;;-11.69;88.61;100235.59;5053075;28;20064;-84
2021/12/27 05:33:42;;;;;;;5.15;2.70;;;;;;;-11.72;88.93;100243.84;5070335;28;20529;-83
2021/12/27 05:36:08;;;;;;;3.28;1.92;;;;;;;-11.75;88.72;100245.94;5070756;28;20101;-83
2021/12/27 05:38:34;;;;;;;3.10;2.03;;;;;;;-11.79;88.98;100241.97;5070515;28;20048;-82
2021/12/27 05:40:59;;;;;;;3.72;2.00;;;;;;;-11.85;88.27;100237.25;5070932;28;20114;-83
2021/12/27 05:43:27;;;;;;;5.88;2.25;;;;;;;-11.92;89.01;100245.78;5070624;28;20525;-83
2021/12/27 05:45:52;;;;;;;5.85;2.63;;;;;;;-11.99;88.40;100257.91;5070705;28;20052;-82
2021/12/27 05:48:18;;;;;;;4.75;2.78;;;;;;;-12.03;88.70;100266.28;5071213;28;20043;-84
2021/12/27 05:50:44;;;;;;;4.00;2.13;;;;;;;-12.09;88.82;100265.06;5070373;28;20205;-84
2021/12/27 05:53:10;;;;;;;5.68;2.65;;;;;;;-12.13;88.66;100265.50;5070557;28;20127;-84
2021/12/27 05:55:36;;;;;;;4.28;2.00;;;;;;;-12.18;88.37;100276.50;5050044;28;20122;-83
2021/12/27 05:58:02;;;;;;;5.20;2.70;;;;;;;-12.21;88.45;100276.78;5083625;28;20110;-84
2021/12/27 06:00:28;;;;;;;6.50;2.08;;;;;;;-12.26;88.97;100277.22;5067921;28;20509;-83
2021/12/27 06:02:54;;;;;;;4.80;2.58;;;;;;;-12.28;88.42;100281.00;5069427;28;20049;-83
2021/12/27 06:05:22;;;;;;;3.13;2.30;;;;;;;-12.32;88.86;100283.09;5058715;28;20037;-82
2021/12/27 06:07:48;;;;;;;7.80;3.13;;;;;;;-12.33;88.94;100294.63;5068642;28;20756;-83
2021/12/27 06:10:14;;;;;;;3.95;2.45;;;;;;;-12.34;88.81;100287.66;5070142;28;20102;-83
2021/12/27 06:12:40;;;;;;;8.13;2.97;;;;;;;-12.34;88.58;100295.59;5070280;28;20040;-83
2021/12/27 06:15:07;;;;;;;3.80;2.47;;;;;;;-12.36;89.09;100307.28;5070415;28;20127;-83
2021/12/27 06:17:33;;;;;;;4.72;3.00;;;;;;;-12.34;88.91;100318.56;5069928;28;20064;-82
2021/12/27 06:20:04;;;;;;;5.97;3.30;;;;;;;-12.33;89.06;100317.56;5071144;28;20043;-84
2021/12/27 06:22:29;;;;;;;4.82;2.72;;;;;;;-12.32;89.06;100316.59;5070217;28;20040;-83
2021/12/27 06:24:55;;;;;;;5.22;2.78;;;;;;;-12.29;89.13;100316.34;5036082;28;20067;-84
2021/12/27 06:27:21;;;;;;;2.72;1.98;;;;;;;-12.26;89.33;100324.81;5070325;28;20115;-82
2021/12/27 06:29:46;;;;;;;4.75;3.00;;;;;;;-12.24;89.42;100329.97;5070346;28;20139;-83
2021/12/27 06:32:14;;;;;;;7.65;4.22;;;;;;;-12.21;89.26;100319.09;5070347;28;20040;-83
2021/12/27 06:34:40;;;;;;;7.95;2.72;;;;;;;-12.22;89.17;100325.34;5070520;28;20148;-83
2021/12/27 06:37:07;;;;;;;8.57;3.55;;;;;;;-12.21;89.38;100333.16;5070312;28;20037;-83
2021/12/27 06:39:32;;;;;;;9.40;3.90;;;;;;;-12.19;89.01;100330.34;5069993;28;20542;-83
2021/12/27 06:41:58;;;;;;;5.13;3.35;;;;;;;-12.19;89.25;100340.94;5070158;28;20036;-83
2021/12/27 06:44:23;;;;;;;5.20;3.20;;;;;;;-12.20;89.44;100334.81;5070725;28;20043;-84
2021/12/27 06:46:49;;;;;;;6.03;4.28;;;;;;;-12.17;89.08;100346.91;5073958;28;20041;-84
2021/12/27 06:49:15;;;;;;;6.28;3.65;;;;;;;-12.17;89.60;100344.25;5073837;28;20089;-82
2021/12/27 06:51:41;;;;;;;7.07;3.88;;;;;;;-12.14;88.77;100353.75;5073618;28;20029;-83
2021/12/27 06:54:06;;;;;;;7.63;3.40;;;;;;;-12.13;89.06;100356.25;5073889;28;20071;-83
2021/12/27 06:56:32;;;;;;;6.40;2.80;;;;;;;-12.10;89.41;100361.25;5055663;28;20079;-83
2021/12/27 06:58:59;;;;;;;4.22;2.70;;;;;;;-12.09;89.24;100352.34;5055694;28;20130;-83
2021/12/27 07:01:24;;;;;;;9.63;3.25;;;;;;;-12.08;89.09;100354.00;5073520;28;20032;-84
2021/12/27 07:03:50;;;;;;;5.43;2.78;;;;;;;-12.07;89.02;100360.97;5039107;28;20051;-84
2021/12/27 07:06:16;;;;;;;5.20;2.90;;;;;;;-12.05;88.70;100364.28;5073717;28;20072;-84
2021/12/27 07:08:41;;;;;;;7.25;2.78;;;;;;;-12.04;89.27;100368.59;5074119;28;20127;-84
2021/12/27 07:11:07;;;;;;;4.80;2.72;;;;;;;-12.02;89.06;100364.00;5073613;28;20048;-85
2021/12/27 07:13:33;;;;;;;5.38;3.28;;;;;;;-12.00;89.09;100371.78;5073288;28;20060;-86
2021/12/27 07:15:58;;;;;;;7.22;3.35;;;;;;;-11.99;89.70;100373.47;5073016;28;20060;-84
2021/12/27 07:18:24;;;;;;;6.30;3.50;;;;;;;-11.99;89.38;100368.16;5073396;28;20079;-83
2021/12/27 07:20:51;;;;;;;8.23;2.85;;;;;;;-11.97;89.29;100380.31;5073560;28;20451;-84
2021/12/27 07:23:17;;;;;;;3.92;2.58;;;;;;;-11.93;89.50;100386.97;5073102;28;20067;-84
2021/12/27 07:25:42;;;;;;;8.55;3.13;;;;;;;-11.91;89.23;100381.53;5055182;28;20036;-85
2021/12/27 07:28:08;;;;;;;11.20;4.32;;;;;;;-11.89;89.31;100388.34;5073124;28;20063;-84
2021/12/27 07:30:34;;;;;;;8.02;3.55;;;;;;;-11.87;89.09;100394.31;5073268;28;20658;-85
2021/12/27 07:32:59;;;;;;;4.72;2.78;;;;;;;-11.85;89.63;100385.41;5073517;28;20041;-83
2021/12/27 07:35:26;;;;;;;7.05;3.00;;;;;;;-11.84;88.92;100397.66;5073207;28;20094;-83
2021/12/27 07:37:52;;;;;;;7.13;3.30;;;;;;;-11.82;88.59;100400.97;5073034;28;20043;-83
2021/12/27 07:40:17;;;;;;;5.30;2.80;;;;;;;-11.83;89.30;100404.59;5072901;28;20131;-83
2021/12/27 07:42:43;;;;;;;5.30;3.22;;;;;;;-11.81;89.53;100402.66;5072881;28;20048;-83
2021/12/27 07:45:09;;;;;;;5.32;2.88;;;;;;;-11.77;89.52;100404.03;5071940;28;20089;-83
2021/12/27 07:47:35;;;;;;;6.63;2.72;;;;;;;-11.77;89.25;100415.44;5073266;28;20044;-83
2021/12/27 07:50:02;;;;;;;5.97;2.65;;;;;;;-11.75;89.30;100415.28;5055217;28;20153;-84
2021/12/27 07:52:27;;;;;;;5.57;3.13;;;;;;;-11.72;89.26;100422.94;5072545;28;20044;-85
2021/12/27 07:54:53;;;;;;;11.32;5.00;;;;;;;-11.70;88.92;100426.28;5055169;28;20452;-83
2021/12/27 07:57:18;;;;;;;5.70;2.67;;;;;;;-11.68;89.04;100429.63;5071344;28;20036;-82
2021/12/27 07:59:47;;;;;;;6.95;3.55;;;;;;;-11.67;89.10;100439.22;5054493;28;20041;-83
2021/12/27 08:02:14;;;;;;;5.72;2.80;;;;;;;-11.65;89.53;100434.63;5072141;28;20032;-84
2021/12/27 08:04:40;;;;;;;3.92;2.45;;;;;;;-11.58;88.84;100443.66;5072590;28;20067;-85
2021/12/27 08:07:06;;;;;;;7.75;2.88;;;;;;;-11.56;89.04;100449.66;5072589;28;20127;-85
2021/12/27 08:09:32;;;;;;;4.38;2.30;;;;;;;-11.54;89.51;100445.03;5071951;28;20036;-85
2021/12/27 08:11:57;;;;;;;4.47;2.75;;;;;;;-11.53;88.67;100451.16;5072434;28;20063;-85
2021/12/27 08:14:23;;;;;;;3.15;2.30;;;;;;;-11.53;89.42;100452.00;5053748;28;20051;-85
2021/12/27 08:16:49;;;;;;;3.35;2.38;;;;;;;-11.50;88.71;100450.88;5053882;28;20036;-85
2021/12/27 08:19:14;;;;;;;4.18;3.00;;;;;;;-11.49;88.99;100452.53;5054527;28;20075;-86
2021/12/27 08:21:40;;;;;;;7.72;3.13;;;;;;;-11.48;89.14;100452.41;5071472;28;20127;-86
2021/12/27 08:24:06;;;;;;;4.40;2.63;;;;;;;-11.45;89.21;100464.50;5071887;28;20036;-86
2021/12/27 08:26:32;;;;;;;6.47;2.95;;;;;;;-11.42;89.31;100457.13;5037427;28;20036;-85
2021/12/27 08:28:58;;;;;;;6.28;3.10;;;;;;;-11.41;88.92;100464.09;5072229;28;20105;-85
2021/12/27 08:31:23;;;;;;;9.00;3.10;;;;;;;-11.38;88.97;100468.25;5071252;28;20044;-85
2021/12/27 08:33:49;;;;;;;6.22;2.58;;;;;;;-11.33;89.12;100471.31;5071822;28;20123;-85
2021/12/27 08:36:15;;;;;;;4.10;2.67;;;;;;;-11.29;89.62;100470.88;5071994;28;20047;-84
2021/12/27 08:38:44;;;;;;;5.07;2.85;;;;;;;-11.26;88.84;100473.25;5071862;28;20041;-85
2021/12/27 08:41:09;;;;;;;8.27;3.15;;;;;;;-11.26;89.19;100472.41;5071878;28;20040;-86
2021/12/27 08:43:35;;;;;;;4.78;3.00;;;;;;;-11.26;88.91;100467.94;5071415;28;20042;-85
2021/12/27 08:46:00;;;;;;;4.78;2.92;;;;;;;-11.26;89.41;100467.94;5071564;28;20499;-75
2021/12/27 08:48:27;;;;;;;5.03;2.58;;;;;;;-11.23;89.15;100473.94;5071386;28;20048;-76
2021/12/27 08:50:53;;;;;;;4.85;2.90;;;;;;;-11.19;89.34;100480.59;5070855;28;20040;-73
2021/12/27 08:53:20;;;;;;;4.30;2.33;;;;;;;-11.20;88.79;100477.13;5070898;28;20093;-75
2021/12/27 08:55:45;;;;;;;5.30;2.42;;;;;;;-11.15;88.80;100474.03;5071520;28;20083;-79
2021/12/27 08:58:11;;;;;;;7.75;2.53;;;;;;;-11.14;88.65;100473.03;5036908;28;20070;-79
2021/12/27 09:00:36;;;;;;;6.28;3.25;;;;;;;-11.09;89.08;100473.47;5069240;28;20055;-78
2021/12/27 09:03:02;;;;;;;5.40;2.72;;;;;;;-11.07;88.79;100474.97;5050633;28;20059;-78
2021/12/27 09:05:28;;;;;;;3.38;2.00;;;;;;;-11.05;88.98;100480.97;5053645;28;20047;-78
2021/12/27 09:07:53;;;;;;;4.38;2.80;;;;;;;-11.03;88.51;100486.13;5071301;28;20040;-78
2021/12/27 09:10:19;;;;;;;3.58;2.25;;;;;;;-11.01;88.99;100482.34;5064935;28;20040;-78
2021/12/27 09:12:44;;;;;;;5.30;2.30;;;;;;;-10.99;88.26;100490.13;5071270;28;20058;-78
2021/12/27 09:15:11;;;;;;;4.18;2.30;;;;;;;-11.01;89.13;100490.28;5069696;28;20040;-77
2021/12/27 09:17:36;;;;;;;5.30;3.40;;;;;;;-11.00;88.92;100494.59;5070794;28;20044;-78
2021/12/27 09:20:04;;;;;;;6.07;2.92;;;;;;;-11.02;88.00;100495.72;5053632;28;20036;-78
2021/12/27 09:22:30;;;;;;;7.47;3.28;;;;;;;-11.00;88.73;100494.59;5070851;28;20037;-78
2021/12/27 09:24:55;;;;;;;8.73;3.25;;;;;;;-10.97;88.12;100494.31;5070866;28;20110;-79
2021/12/27 09:27:21;;;;;;;3.67;2.75;;;;;;;-10.96;88.57;100495.97;5069533;28;20089;-78
2021/12/27 09:29:47;;;;;;;5.20;2.70;;;;;;;-10.90;88.77;100497.22;5038979;28;20041;-77
2021/12/27 09:32:13;;;;;;;5.80;2.33;;;;;;;-10.88;88.82;100489.97;5070031;28;20035;-76
2021/12/27 09:34:38;;;;;;;4.10;2.70;;;;;;;-10.85;87.85;100487.00;5070797;28;20037;-77
2021/12/27 09:37:04;;;;;;;3.80;2.60;;;;;;;-10.81;88.84;100503.44;5071111;28;20036;-77
2021/12/27 09:39:30;;;;;;;5.07;2.40;;;;;;;-10.81;88.07;100506.94;5070725;28;20040;-78
2021/12/27 09:41:56;;;;;;;6.20;3.33;;;;;;;-10.80;88.24;100513.06;5070247;28;20036;-79
2021/12/27 09:44:21;;;;;;;4.03;2.50;;;;;;;-10.82;88.18;100520.34;5051582;28;20466;-77
2021/12/27 09:46:47;;;;;;;3.00;2.25;;;;;;;-10.80;88.84;100524.50;5071197;28;20032;-76
2021/12/27 09:49:15;;;;;;;5.90;3.08;;;;;;;-10.78;88.08;100529.66;5056231;28;20049;-79
2021/12/27 09:51:42;;;;;;;6.90;3.25;;;;;;;-10.80;88.25;100532.44;5052771;28;20500;-79
2021/12/27 09:54:08;;;;;;;4.20;3.05;;;;;;;-10.82;87.57;100534.41;5071343;28;20048;-78
2021/12/27 09:56:33;;;;;;;5.93;3.28;;;;;;;-10.83;87.92;100548.66;5052738;28;20510;-77
2021/12/27 09:58:59;;;;;;;3.85;2.35;;;;;;;-10.87;88.33;100544.63;5069166;28;20097;-80
2021/12/27 10:01:25;;;;;;;5.90;2.63;;;;;;;-10.89;88.32;100557.19;5070681;28;20526;-83
2021/12/27 10:03:53;;;;;;;5.70;3.30;;;;;;;-10.90;88.22;100558.19;5069929;28;20032;-84
2021/12/27 10:06:20;;;;;;;6.80;3.40;;;;;;;-10.90;87.95;100557.34;5071054;28;20063;-77
2021/12/27 10:08:47;;;;;;;7.00;3.55;;;;;;;-10.93;87.68;100563.75;5070581;28;20131;-77
2021/12/27 10:11:30;;;;;;;6.15;3.65;;;;;;;-10.95;87.24;100555.94;5069862;28;20527;-76
2021/12/27 10:14:03;;;;;;;5.22;3.08;;;;;;;-10.95;87.68;100560.41;5069014;28;20103;-76
2021/12/27 10:16:30;;;;;;;5.30;3.03;;;;;;;-10.93;87.85;100558.47;5070377;28;20041;-76
2021/12/27 10:18:58;;;;;;;5.05;2.97;;;;;;;-10.93;87.49;100565.56;5070673;28;20063;-76
2021/12/27 10:21:24;;;;;;;6.25;3.08;;;;;;;-10.91;87.64;100571.56;5067998;28;20037;-77
2021/12/27 10:24:14;;;;;;;5.93;2.55;;;;;;;-10.92;87.54;100576.03;5073850;28;20166;-76
2021/12/27 10:26:40;;;;;;;5.28;2.90;;;;;;;-10.91;88.18;100577.69;5066347;28;20085;-77
2021/12/27 10:29:16;;;;;;;5.78;2.75;;;;;;;-10.89;88.09;100589.00;5055615;28;20526;-77
2021/12/27 10:32:04;;;;;;;4.93;2.80;;;;;;;-10.89;87.47;100594.28;5058992;28;20123;-77
2021/12/27 10:34:31;;;;;;;4.82;2.60;;;;;;;-10.89;87.98;100591.63;5065491;28;20039;-76
2021/12/27 10:37:02;;;;;;;4.07;2.78;;;;;;;-10.91;88.25;100592.78;5075628;28;20127;-73
2021/12/27 10:39:57;;;;;;;4.80;2.80;;;;;;;-10.91;88.23;100596.25;5076218;28;20040;-86
2021/12/27 10:42:37;;;;;;;8.90;3.67;;;;;;;-10.95;88.03;100593.03;5067190;28;20045;-76
2021/12/27 10:45:11;;;;;;;7.10;3.70;;;;;;;-10.95;88.09;100594.84;5051402;28;20511;-77
2021/12/27 10:47:37;;;;;;;6.60;3.60;;;;;;;-10.93;88.14;100587.63;5057762;28;20086;-77
2021/12/27 10:50:05;;;;;;;6.25;3.92;;;;;;;-10.92;88.08;100597.25;5073779;28;20029;-76
2021/12/27 10:52:53;;;;;;;5.95;3.47;;;;;;;-10.91;88.09;100598.91;5077032;28;20044;-76
2021/12/27 10:55:31;;;;;;;9.00;4.00;;;;;;;-10.90;87.78;100605.88;5076000;28;20036;-75
2021/12/27 10:58:18;;;;;;;12.23;4.95;;;;;;;-10.84;87.65;100609.75;5073609;28;20097;-74
2021/12/27 11:00:48;;;;;;;8.45;3.45;;;;;;;-10.80;87.83;100605.81;5060668;28;20036;-75
2021/12/27 11:03:33;;;;;;;6.85;3.75;;;;;;;-10.75;87.71;100609.72;5088132;28;20118;-75
2021/12/27 11:06:02;;;;;;;5.53;3.47;;;;;;;-10.70;87.82;100606.63;5072108;28;20043;-76
2021/12/27 11:08:28;;;;;;;7.67;3.43;;;;;;;-10.69;87.79;100609.16;5073312;28;20048;-76
2021/12/27 11:10:54;;;;;;;5.10;3.13;;;;;;;-10.69;88.15;100603.84;5072096;28;20669;-76
2021/12/27 11:13:26;;;;;;;6.00;3.47;;;;;;;-10.66;88.19;100608.00;5055051;28;20032;-76
2021/12/27 11:15:53;;;;;;;6.05;3.20;;;;;;;-10.65;88.43;100605.22;5055453;28;20036;-76
2021/12/27 11:18:18;;;;;;;4.32;2.88;;;;;;;-10.63;88.61;100604.22;5072766;28;20048;-75